sensor_id;sensor_type;location;lat;lon;timestamp;P1;durP1;ratioP1;P2;durP2;ratioP2
59306;SDS011;47983;53.016;-2.260;2023-04-06T00:02:05;26.60;;;13.15;;
59306;SDS011;47983;53.016;-2.260;2023-04-06T00:04:33;24.75;;;13.23;;
59306;SDS011;47983;53.016;-2.260;2023-04-06T00:07:03;23.52;;;12.80;;
59306;SDS011;47983;53.016;-2.260;2023-04-06T00:09:30;26.20;;;12.98;;
59306;SDS011;47983;53.016;-2.260;2023-04-06T00:11:58;26.63;;;14.00;;
59306;SDS011;47983;53.016;-2.260;2023-04-06T00:14:26;26.95;;;13.30;;
59306;SDS011;47983;53.016;-2.260;2023-04-06T00:16:53;26.30;;;13.63;;
59306;SDS011;47983;53.016;-2.260;2023-04-06T00:19:22;21.50;;;11.90;;
59306;SDS011;47983;53.016;-2.260;2023-04-06T00:21:49;24.27;;;12.75;;
59306;SDS011;47983;53.016;-2.260;2023-04-06T00:24:19;24.65;;;12.93;;
59306;SDS011;47983;53.016;-2.260;2023-04-06T00:26:47;26.23;;;12.70;;
59306;SDS011;47983;53.016;-2.260;2023-04-06T00:29:14;24.17;;;12.77;;
59306;SDS011;47983;53.016;-2.260;2023-04-06T00:31:42;24.00;;;12.52;;
59306;SDS011;47983;53.016;-2.260;2023-04-06T00:34:10;36.08;;;13.73;;
59306;SDS011;47983;53.016;-2.260;2023-04-06T00:36:37;25.13;;;11.73;;
59306;SDS011;47983;53.016;-2.260;2023-04-06T00:39:05;23.67;;;12.13;;
59306;SDS011;47983;53.016;-2.260;2023-04-06T00:41:33;20.55;;;10.40;;
59306;SDS011;47983;53.016;-2.260;2023-04-06T00:44:01;18.08;;;9.48;;
59306;SDS011;47983;53.016;-2.260;2023-04-06T00:46:29;17.73;;;9.00;;
59306;SDS011;47983;53.016;-2.260;2023-04-06T00:48:57;18.75;;;10.57;;
59306;SDS011;47983;53.016;-2.260;2023-04-06T00:51:25;21.08;;;10.52;;
59306;SDS011;47983;53.016;-2.260;2023-04-06T00:53:52;22.60;;;11.07;;
59306;SDS011;47983;53.016;-2.260;2023-04-06T00:56:20;16.63;;;8.85;;
59306;SDS011;47983;53.016;-2.260;2023-04-06T00:58:52;20.38;;;9.50;;
59306;SDS011;47983;53.016;-2.260;2023-04-06T01:01:21;14.77;;;8.05;;
59306;SDS011;47983;53.016;-2.260;2023-04-06T01:03:50;12.45;;;7.32;;
59306;SDS011;47983;53.016;-2.260;2023-04-06T01:06:19;12.97;;;7.07;;
59306;SDS011;47983;53.016;-2.260;2023-04-06T01:08:56;14.80;;;7.95;;
59306;SDS011;47983;53.016;-2.260;2023-04-06T01:11:25;10.40;;;5.70;;
59306;SDS011;47983;53.016;-2.260;2023-04-06T01:13:53;10.32;;;5.30;;
59306;SDS011;47983;53.016;-2.260;2023-04-06T01:16:41;9.88;;;5.55;;
59306;SDS011;47983;53.016;-2.260;2023-04-06T01:19:13;9.05;;;5.55;;
59306;SDS011;47983;53.016;-2.260;2023-04-06T01:21:45;9.02;;;5.15;;
59306;SDS011;47983;53.016;-2.260;2023-04-06T01:24:22;8.82;;;4.65;;
59306;SDS011;47983;53.016;-2.260;2023-04-06T01:27:19;7.43;;;4.80;;
59306;SDS011;47983;53.016;-2.260;2023-04-06T01:30:03;7.40;;;3.80;;
59306;SDS011;47983;53.016;-2.260;2023-04-06T01:32:48;6.40;;;3.95;;
59306;SDS011;47983;53.016;-2.260;2023-04-06T01:35:26;8.07;;;4.63;;
59306;SDS011;47983;53.016;-2.260;2023-04-06T01:38:13;8.00;;;4.40;;
59306;SDS011;47983;53.016;-2.260;2023-04-06T01:40:43;6.77;;;4.10;;
59306;SDS011;47983;53.016;-2.260;2023-04-06T01:43:11;10.52;;;4.63;;
59306;SDS011;47983;53.016;-2.260;2023-04-06T01:45:54;6.22;;;4.05;;
59306;SDS011;47983;53.016;-2.260;2023-04-06T01:48:27;6.22;;;3.92;;
59306;SDS011;47983;53.016;-2.260;2023-04-06T01:50:55;6.13;;;4.00;;
59306;SDS011;47983;53.016;-2.260;2023-04-06T01:53:29;7.32;;;4.28;;
59306;SDS011;47983;53.016;-2.260;2023-04-06T01:56:02;8.07;;;4.68;;
59306;SDS011;47983;53.016;-2.260;2023-04-06T01:58:33;8.40;;;3.92;;
59306;SDS011;47983;53.016;-2.260;2023-04-06T02:01:02;7.95;;;4.53;;
59306;SDS011;47983;53.016;-2.260;2023-04-06T02:03:40;6.93;;;4.63;;
59306;SDS011;47983;53.016;-2.260;2023-04-06T02:06:10;7.80;;;4.45;;
59306;SDS011;47983;53.016;-2.260;2023-04-06T02:08:39;6.65;;;3.70;;
59306;SDS011;47983;53.016;-2.260;2023-04-06T02:11:07;8.43;;;4.30;;
59306;SDS011;47983;53.016;-2.260;2023-04-06T02:13:46;6.30;;;3.60;;
59306;SDS011;47983;53.016;-2.260;2023-04-06T02:16:14;7.97;;;4.35;;
59306;SDS011;47983;53.016;-2.260;2023-04-06T02:18:45;5.85;;;3.85;;
59306;SDS011;47983;53.016;-2.260;2023-04-06T02:21:12;5.05;;;3.08;;
59306;SDS011;47983;53.016;-2.260;2023-04-06T02:23:40;6.50;;;3.28;;
59306;SDS011;47983;53.016;-2.260;2023-04-06T02:26:08;5.63;;;2.33;;
59306;SDS011;47983;53.016;-2.260;2023-04-06T02:28:35;4.75;;;2.97;;
59306;SDS011;47983;53.016;-2.260;2023-04-06T02:31:03;4.43;;;2.45;;
59306;SDS011;47983;53.016;-2.260;2023-04-06T02:33:30;3.00;;;1.88;;
59306;SDS011;47983;53.016;-2.260;2023-04-06T02:36:01;2.63;;;1.70;;
59306;SDS011;47983;53.016;-2.260;2023-04-06T02:38:29;2.15;;;1.25;;
59306;SDS011;47983;53.016;-2.260;2023-04-06T02:40:59;2.53;;;1.60;;
59306;SDS011;47983;53.016;-2.260;2023-04-06T02:43:28;1.45;;;1.20;;
59306;SDS011;47983;53.016;-2.260;2023-04-06T02:46:08;2.30;;;1.30;;
59306;SDS011;47983;53.016;-2.260;2023-04-06T02:51:05;1.63;;;1.13;;
59306;SDS011;47983;53.016;-2.260;2023-04-06T02:53:34;1.50;;;1.30;;
59306;SDS011;47983;53.016;-2.260;2023-04-06T02:56:02;1.90;;;1.08;;
59306;SDS011;47983;53.016;-2.260;2023-04-06T02:58:41;2.00;;;1.13;;
59306;SDS011;47983;53.016;-2.260;2023-04-06T03:01:08;3.30;;;1.45;;
59306;SDS011;47983;53.016;-2.260;2023-04-06T03:03:38;1.95;;;1.55;;
59306;SDS011;47983;53.016;-2.260;2023-04-06T03:06:12;4.85;;;1.63;;
59306;SDS011;47983;53.016;-2.260;2023-04-06T03:08:40;2.30;;;1.75;;
59306;SDS011;47983;53.016;-2.260;2023-04-06T03:11:07;3.88;;;2.50;;
59306;SDS011;47983;53.016;-2.260;2023-04-06T03:13:39;4.93;;;2.00;;
59306;SDS011;47983;53.016;-2.260;2023-04-06T03:16:07;4.60;;;2.78;;
59306;SDS011;47983;53.016;-2.260;2023-04-06T03:18:35;5.78;;;2.80;;
59306;SDS011;47983;53.016;-2.260;2023-04-06T03:21:02;3.92;;;2.55;;
59306;SDS011;47983;53.016;-2.260;2023-04-06T03:23:42;5.57;;;3.20;;
59306;SDS011;47983;53.016;-2.260;2023-04-06T03:26:09;3.67;;;2.90;;
59306;SDS011;47983;53.016;-2.260;2023-04-06T03:28:37;3.97;;;2.90;;
59306;SDS011;47983;53.016;-2.260;2023-04-06T03:31:06;6.88;;;2.95;;
59306;SDS011;47983;53.016;-2.260;2023-04-06T03:33:45;5.57;;;3.65;;
59306;SDS011;47983;53.016;-2.260;2023-04-06T03:36:25;6.60;;;3.58;;
59306;SDS011;47983;53.016;-2.260;2023-04-06T03:38:56;5.20;;;4.00;;
59306;SDS011;47983;53.016;-2.260;2023-04-06T03:41:24;9.10;;;4.85;;
59306;SDS011;47983;53.016;-2.260;2023-04-06T03:44:05;8.30;;;5.47;;
59306;SDS011;47983;53.016;-2.260;2023-04-06T03:46:33;8.93;;;4.90;;
59306;SDS011;47983;53.016;-2.260;2023-04-06T03:49:00;9.82;;;5.40;;
59306;SDS011;47983;53.016;-2.260;2023-04-06T03:51:29;12.02;;;5.82;;
59306;SDS011;47983;53.016;-2.260;2023-04-06T03:53:56;10.27;;;6.57;;
59306;SDS011;47983;53.016;-2.260;2023-04-06T03:56:24;12.07;;;6.68;;
59306;SDS011;47983;53.016;-2.260;2023-04-06T03:58:53;10.48;;;7.07;;
59306;SDS011;47983;53.016;-2.260;2023-04-06T04:01:21;11.65;;;7.07;;
59306;SDS011;47983;53.016;-2.260;2023-04-06T04:03:48;13.38;;;7.47;;
59306;SDS011;47983;53.016;-2.260;2023-04-06T04:06:18;10.93;;;6.38;;
59306;SDS011;47983;53.016;-2.260;2023-04-06T04:08:45;11.77;;;6.75;;
59306;SDS011;47983;53.016;-2.260;2023-04-06T04:11:13;11.00;;;7.00;;
59306;SDS011;47983;53.016;-2.260;2023-04-06T04:13:44;11.45;;;6.53;;
59306;SDS011;47983;53.016;-2.260;2023-04-06T04:16:12;6.50;;;4.40;;
59306;SDS011;47983;53.016;-2.260;2023-04-06T04:18:39;8.70;;;4.95;;
59306;SDS011;47983;53.016;-2.260;2023-04-06T04:21:07;5.80;;;2.95;;
59306;SDS011;47983;53.016;-2.260;2023-04-06T04:23:34;5.10;;;2.70;;
59306;SDS011;47983;53.016;-2.260;2023-04-06T04:26:08;4.40;;;3.03;;
59306;SDS011;47983;53.016;-2.260;2023-04-06T04:28:35;4.18;;;2.67;;
59306;SDS011;47983;53.016;-2.260;2023-04-06T04:31:03;4.57;;;2.80;;
59306;SDS011;47983;53.016;-2.260;2023-04-06T04:33:34;5.40;;;2.50;;
59306;SDS011;47983;53.016;-2.260;2023-04-06T04:36:07;3.80;;;2.30;;
59306;SDS011;47983;53.016;-2.260;2023-04-06T04:38:39;5.35;;;2.63;;
59306;SDS011;47983;53.016;-2.260;2023-04-06T04:41:07;4.75;;;3.00;;
59306;SDS011;47983;53.016;-2.260;2023-04-06T04:43:37;5.18;;;2.65;;
59306;SDS011;47983;53.016;-2.260;2023-04-06T04:46:05;6.28;;;2.75;;
59306;SDS011;47983;53.016;-2.260;2023-04-06T04:48:39;4.90;;;2.63;;
59306;SDS011;47983;53.016;-2.260;2023-04-06T04:51:08;8.85;;;2.65;;
59306;SDS011;47983;53.016;-2.260;2023-04-06T04:54:04;4.40;;;2.40;;
59306;SDS011;47983;53.016;-2.260;2023-04-06T04:56:35;7.53;;;3.67;;
59306;SDS011;47983;53.016;-2.260;2023-04-06T04:59:23;5.22;;;3.35;;
59306;SDS011;47983;53.016;-2.260;2023-04-06T05:01:58;18.30;;;3.70;;
59306;SDS011;47983;53.016;-2.260;2023-04-06T05:04:39;9.77;;;3.90;;
59306;SDS011;47983;53.016;-2.260;2023-04-06T05:07:10;8.00;;;3.47;;
59306;SDS011;47983;53.016;-2.260;2023-04-06T05:09:40;8.95;;;3.92;;
59306;SDS011;47983;53.016;-2.260;2023-04-06T05:12:08;7.40;;;3.80;;
59306;SDS011;47983;53.016;-2.260;2023-04-06T05:14:46;11.18;;;4.25;;
59306;SDS011;47983;53.016;-2.260;2023-04-06T05:17:17;11.00;;;4.10;;
59306;SDS011;47983;53.016;-2.260;2023-04-06T05:19:45;12.13;;;5.00;;
59306;SDS011;47983;53.016;-2.260;2023-04-06T05:22:16;10.98;;;5.43;;
59306;SDS011;47983;53.016;-2.260;2023-04-06T05:24:50;11.90;;;5.22;;
59306;SDS011;47983;53.016;-2.260;2023-04-06T05:27:18;15.65;;;5.60;;
59306;SDS011;47983;53.016;-2.260;2023-04-06T05:29:47;15.90;;;6.27;;
59306;SDS011;47983;53.016;-2.260;2023-04-06T05:32:15;15.13;;;7.25;;
59306;SDS011;47983;53.016;-2.260;2023-04-06T05:34:44;20.00;;;8.00;;
59306;SDS011;47983;53.016;-2.260;2023-04-06T05:37:12;23.80;;;9.57;;
59306;SDS011;47983;53.016;-2.260;2023-04-06T05:39:40;23.20;;;10.20;;
59306;SDS011;47983;53.016;-2.260;2023-04-06T05:42:08;32.80;;;12.27;;
59306;SDS011;47983;53.016;-2.260;2023-04-06T05:44:49;39.08;;;13.80;;
59306;SDS011;47983;53.016;-2.260;2023-04-06T05:47:18;39.08;;;14.40;;
59306;SDS011;47983;53.016;-2.260;2023-04-06T05:49:51;44.08;;;15.07;;
59306;SDS011;47983;53.016;-2.260;2023-04-06T05:52:28;39.55;;;15.13;;
59306;SDS011;47983;53.016;-2.260;2023-04-06T05:54:56;34.75;;;12.55;;
59306;SDS011;47983;53.016;-2.260;2023-04-06T05:57:25;29.27;;;10.63;;
59306;SDS011;47983;53.016;-2.260;2023-04-06T05:59:54;35.38;;;12.30;;
59306;SDS011;47983;53.016;-2.260;2023-04-06T06:02:26;35.70;;;11.68;;
59306;SDS011;47983;53.016;-2.260;2023-04-06T06:04:55;39.37;;;11.47;;
59306;SDS011;47983;53.016;-2.260;2023-04-06T06:07:24;51.08;;;16.10;;
59306;SDS011;47983;53.016;-2.260;2023-04-06T06:09:58;51.78;;;15.57;;
59306;SDS011;47983;53.016;-2.260;2023-04-06T06:12:31;56.55;;;16.63;;
59306;SDS011;47983;53.016;-2.260;2023-04-06T06:15:00;58.58;;;15.73;;
59306;SDS011;47983;53.016;-2.260;2023-04-06T06:17:31;42.72;;;14.32;;
59306;SDS011;47983;53.016;-2.260;2023-04-06T06:20:00;62.70;;;18.13;;
59306;SDS011;47983;53.016;-2.260;2023-04-06T06:22:28;44.30;;;17.63;;
59306;SDS011;47983;53.016;-2.260;2023-04-06T06:24:57;53.08;;;18.92;;
59306;SDS011;47983;53.016;-2.260;2023-04-06T06:27:24;53.45;;;17.75;;
59306;SDS011;47983;53.016;-2.260;2023-04-06T06:29:52;44.33;;;14.95;;
59306;SDS011;47983;53.016;-2.260;2023-04-06T06:32:20;39.65;;;14.68;;
59306;SDS011;47983;53.016;-2.260;2023-04-06T06:34:50;38.53;;;15.00;;
59306;SDS011;47983;53.016;-2.260;2023-04-06T06:37:19;33.10;;;14.88;;
59306;SDS011;47983;53.016;-2.260;2023-04-06T06:39:48;35.95;;;12.60;;
59306;SDS011;47983;53.016;-2.260;2023-04-06T06:42:16;32.35;;;12.55;;
59306;SDS011;47983;53.016;-2.260;2023-04-06T06:45:03;31.38;;;12.27;;
59306;SDS011;47983;53.016;-2.260;2023-04-06T06:47:34;20.92;;;9.60;;
59306;SDS011;47983;53.016;-2.260;2023-04-06T06:50:05;16.27;;;8.23;;
59306;SDS011;47983;53.016;-2.260;2023-04-06T06:52:35;26.85;;;9.65;;
59306;SDS011;47983;53.016;-2.260;2023-04-06T06:55:03;25.95;;;10.80;;
59306;SDS011;47983;53.016;-2.260;2023-04-06T06:57:32;30.48;;;10.60;;
59306;SDS011;47983;53.016;-2.260;2023-04-06T07:00:01;19.30;;;10.75;;
59306;SDS011;47983;53.016;-2.260;2023-04-06T07:02:30;22.38;;;9.00;;
59306;SDS011;47983;53.016;-2.260;2023-04-06T07:04:58;26.20;;;9.80;;
59306;SDS011;47983;53.016;-2.260;2023-04-06T07:07:25;29.33;;;9.63;;
59306;SDS011;47983;53.016;-2.260;2023-04-06T07:09:53;22.52;;;9.82;;
59306;SDS011;47983;53.016;-2.260;2023-04-06T07:12:20;22.10;;;9.50;;
59306;SDS011;47983;53.016;-2.260;2023-04-06T07:14:48;23.30;;;10.40;;
59306;SDS011;47983;53.016;-2.260;2023-04-06T07:17:17;25.50;;;9.90;;
59306;SDS011;47983;53.016;-2.260;2023-04-06T07:19:44;24.35;;;8.40;;
59306;SDS011;47983;53.016;-2.260;2023-04-06T07:22:12;20.15;;;7.80;;
59306;SDS011;47983;53.016;-2.260;2023-04-06T07:24:40;18.90;;;7.55;;
59306;SDS011;47983;53.016;-2.260;2023-04-06T07:27:08;18.27;;;7.03;;
59306;SDS011;47983;53.016;-2.260;2023-04-06T07:29:35;23.33;;;7.15;;
59306;SDS011;47983;53.016;-2.260;2023-04-06T07:32:04;17.65;;;6.25;;
59306;SDS011;47983;53.016;-2.260;2023-04-06T07:34:35;25.27;;;6.15;;
59306;SDS011;47983;53.016;-2.260;2023-04-06T07:37:06;13.30;;;4.68;;
59306;SDS011;47983;53.016;-2.260;2023-04-06T07:39:34;15.13;;;5.05;;
59306;SDS011;47983;53.016;-2.260;2023-04-06T07:42:02;12.27;;;5.70;;
59306;SDS011;47983;53.016;-2.260;2023-04-06T07:44:29;21.63;;;4.35;;
59306;SDS011;47983;53.016;-2.260;2023-04-06T07:46:57;16.25;;;4.38;;
59306;SDS011;47983;53.016;-2.260;2023-04-06T07:49:28;15.98;;;5.28;;
59306;SDS011;47983;53.016;-2.260;2023-04-06T07:51:56;16.05;;;5.47;;
59306;SDS011;47983;53.016;-2.260;2023-04-06T07:54:24;11.90;;;4.28;;
59306;SDS011;47983;53.016;-2.260;2023-04-06T07:56:51;8.70;;;3.88;;
59306;SDS011;47983;53.016;-2.260;2023-04-06T07:59:19;7.78;;;3.30;;
59306;SDS011;47983;53.016;-2.260;2023-04-06T08:01:47;12.18;;;2.80;;
59306;SDS011;47983;53.016;-2.260;2023-04-06T08:04:15;14.07;;;3.00;;
59306;SDS011;47983;53.016;-2.260;2023-04-06T08:06:43;20.55;;;4.53;;
59306;SDS011;47983;53.016;-2.260;2023-04-06T08:09:11;17.00;;;5.88;;
59306;SDS011;47983;53.016;-2.260;2023-04-06T08:11:38;13.93;;;3.25;;
59306;SDS011;47983;53.016;-2.260;2023-04-06T08:14:06;14.88;;;2.92;;
59306;SDS011;47983;53.016;-2.260;2023-04-06T08:16:34;17.98;;;2.15;;
59306;SDS011;47983;53.016;-2.260;2023-04-06T08:19:02;13.40;;;1.70;;
59306;SDS011;47983;53.016;-2.260;2023-04-06T08:21:32;8.43;;;1.73;;
59306;SDS011;47983;53.016;-2.260;2023-04-06T08:24:00;24.48;;;2.35;;
59306;SDS011;47983;53.016;-2.260;2023-04-06T08:26:28;11.27;;;2.33;;
59306;SDS011;47983;53.016;-2.260;2023-04-06T08:28:56;10.93;;;2.00;;
59306;SDS011;47983;53.016;-2.260;2023-04-06T08:31:24;8.80;;;2.15;;
59306;SDS011;47983;53.016;-2.260;2023-04-06T08:33:53;13.30;;;2.13;;
59306;SDS011;47983;53.016;-2.260;2023-04-06T08:36:20;23.73;;;3.80;;
59306;SDS011;47983;53.016;-2.260;2023-04-06T08:38:49;9.70;;;2.47;;
59306;SDS011;47983;53.016;-2.260;2023-04-06T08:41:17;11.95;;;2.75;;
59306;SDS011;47983;53.016;-2.260;2023-04-06T08:43:58;11.85;;;2.67;;
59306;SDS011;47983;53.016;-2.260;2023-04-06T08:46:28;17.02;;;2.88;;
59306;SDS011;47983;53.016;-2.260;2023-04-06T08:48:58;9.60;;;2.50;;
59306;SDS011;47983;53.016;-2.260;2023-04-06T08:51:28;13.77;;;3.60;;
59306;SDS011;47983;53.016;-2.260;2023-04-06T08:53:57;14.15;;;4.32;;
59306;SDS011;47983;53.016;-2.260;2023-04-06T08:56:26;11.77;;;4.30;;
59306;SDS011;47983;53.016;-2.260;2023-04-06T08:58:55;17.60;;;6.30;;
59306;SDS011;47983;53.016;-2.260;2023-04-06T09:01:27;12.57;;;5.53;;
59306;SDS011;47983;53.016;-2.260;2023-04-06T09:03:57;22.20;;;5.50;;
59306;SDS011;47983;53.016;-2.260;2023-04-06T09:06:27;13.32;;;5.65;;
59306;SDS011;47983;53.016;-2.260;2023-04-06T09:08:55;13.73;;;4.38;;
59306;SDS011;47983;53.016;-2.260;2023-04-06T09:11:24;10.07;;;4.50;;
59306;SDS011;47983;53.016;-2.260;2023-04-06T09:13:53;15.90;;;4.78;;
59306;SDS011;47983;53.016;-2.260;2023-04-06T09:16:22;19.45;;;4.95;;
59306;SDS011;47983;53.016;-2.260;2023-04-06T09:18:51;9.93;;;4.75;;
59306;SDS011;47983;53.016;-2.260;2023-04-06T09:21:19;16.73;;;5.20;;
59306;SDS011;47983;53.016;-2.260;2023-04-06T09:24:00;12.40;;;4.72;;
59306;SDS011;47983;53.016;-2.260;2023-04-06T09:26:29;15.07;;;5.18;;
59306;SDS011;47983;53.016;-2.260;2023-04-06T09:28:57;10.75;;;4.10;;
59306;SDS011;47983;53.016;-2.260;2023-04-06T09:31:29;9.48;;;4.00;;
59306;SDS011;47983;53.016;-2.260;2023-04-06T09:34:00;9.07;;;2.75;;
59306;SDS011;47983;53.016;-2.260;2023-04-06T09:36:29;10.23;;;2.75;;
59306;SDS011;47983;53.016;-2.260;2023-04-06T09:39:03;8.93;;;1.90;;
59306;SDS011;47983;53.016;-2.260;2023-04-06T09:41:32;19.20;;;3.75;;
59306;SDS011;47983;53.016;-2.260;2023-04-06T09:46:38;6.18;;;2.40;;
59306;SDS011;47983;53.016;-2.260;2023-04-06T09:49:27;7.80;;;2.20;;
59306;SDS011;47983;53.016;-2.260;2023-04-06T09:51:58;9.07;;;2.05;;
59306;SDS011;47983;53.016;-2.260;2023-04-06T09:54:29;8.95;;;2.65;;
59306;SDS011;47983;53.016;-2.260;2023-04-06T10:02:36;4.95;;;1.42;;
59306;SDS011;47983;53.016;-2.260;2023-04-06T10:08:09;7.35;;;0.93;;
59306;SDS011;47983;53.016;-2.260;2023-04-06T10:10:37;8.32;;;1.30;;
59306;SDS011;47983;53.016;-2.260;2023-04-06T10:13:05;5.82;;;1.02;;
59306;SDS011;47983;53.016;-2.260;2023-04-06T10:15:34;9.10;;;2.53;;
59306;SDS011;47983;53.016;-2.260;2023-04-06T10:18:06;28.38;;;4.95;;
59306;SDS011;47983;53.016;-2.260;2023-04-06T10:26:14;7.93;;;2.08;;
59306;SDS011;47983;53.016;-2.260;2023-04-06T10:28:45;9.70;;;1.25;;
59306;SDS011;47983;53.016;-2.260;2023-04-06T10:31:14;11.45;;;1.20;;
59306;SDS011;47983;53.016;-2.260;2023-04-06T10:33:52;10.15;;;1.95;;
59306;SDS011;47983;53.016;-2.260;2023-04-06T10:36:25;14.43;;;2.38;;
59306;SDS011;47983;53.016;-2.260;2023-04-06T10:38:54;7.10;;;2.03;;
59306;SDS011;47983;53.016;-2.260;2023-04-06T10:41:31;9.60;;;1.60;;
59306;SDS011;47983;53.016;-2.260;2023-04-06T10:44:01;11.15;;;2.33;;
59306;SDS011;47983;53.016;-2.260;2023-04-06T10:46:31;5.72;;;1.17;;
59306;SDS011;47983;53.016;-2.260;2023-04-06T10:49:10;5.55;;;1.10;;
59306;SDS011;47983;53.016;-2.260;2023-04-06T10:51:41;12.77;;;1.50;;
59306;SDS011;47983;53.016;-2.260;2023-04-06T10:54:11;8.02;;;1.55;;
59306;SDS011;47983;53.016;-2.260;2023-04-06T10:56:40;8.00;;;1.75;;
59306;SDS011;47983;53.016;-2.260;2023-04-06T10:59:08;11.00;;;1.48;;
59306;SDS011;47983;53.016;-2.260;2023-04-06T11:01:36;6.90;;;2.13;;
59306;SDS011;47983;53.016;-2.260;2023-04-06T11:04:04;11.85;;;3.10;;
59306;SDS011;47983;53.016;-2.260;2023-04-06T11:06:35;15.95;;;2.00;;
59306;SDS011;47983;53.016;-2.260;2023-04-06T11:09:05;14.63;;;1.83;;
59306;SDS011;47983;53.016;-2.260;2023-04-06T11:11:33;8.50;;;1.27;;
59306;SDS011;47983;53.016;-2.260;2023-04-06T11:14:09;5.28;;;1.02;;
59306;SDS011;47983;53.016;-2.260;2023-04-06T11:16:37;3.17;;;0.70;;
59306;SDS011;47983;53.016;-2.260;2023-04-06T11:19:05;2.35;;;0.73;;
59306;SDS011;47983;53.016;-2.260;2023-04-06T11:21:42;7.28;;;0.88;;
59306;SDS011;47983;53.016;-2.260;2023-04-06T11:24:18;7.35;;;1.00;;
59306;SDS011;47983;53.016;-2.260;2023-04-06T11:26:53;12.65;;;1.00;;
59306;SDS011;47983;53.016;-2.260;2023-04-06T11:29:26;3.72;;;0.75;;
59306;SDS011;47983;53.016;-2.260;2023-04-06T11:31:58;3.08;;;0.80;;
59306;SDS011;47983;53.016;-2.260;2023-04-06T11:34:35;7.80;;;1.40;;
59306;SDS011;47983;53.016;-2.260;2023-04-06T11:37:09;4.57;;;1.35;;
59306;SDS011;47983;53.016;-2.260;2023-04-06T11:39:38;7.55;;;1.33;;
59306;SDS011;47983;53.016;-2.260;2023-04-06T11:42:07;9.48;;;1.52;;
59306;SDS011;47983;53.016;-2.260;2023-04-06T11:44:40;7.28;;;1.35;;
59306;SDS011;47983;53.016;-2.260;2023-04-06T11:47:16;6.15;;;1.40;;
59306;SDS011;47983;53.016;-2.260;2023-04-06T11:49:52;9.27;;;1.63;;
59306;SDS011;47983;53.016;-2.260;2023-04-06T11:52:22;9.07;;;1.75;;
59306;SDS011;47983;53.016;-2.260;2023-04-06T11:54:52;15.23;;;1.52;;
59306;SDS011;47983;53.016;-2.260;2023-04-06T11:57:21;5.60;;;1.00;;
59306;SDS011;47983;53.016;-2.260;2023-04-06T11:59:52;5.40;;;1.17;;
59306;SDS011;47983;53.016;-2.260;2023-04-06T12:02:20;11.45;;;1.30;;
59306;SDS011;47983;53.016;-2.260;2023-04-06T12:04:48;5.93;;;1.00;;
59306;SDS011;47983;53.016;-2.260;2023-04-06T12:07:16;6.85;;;1.08;;
59306;SDS011;47983;53.016;-2.260;2023-04-06T12:09:44;6.70;;;1.10;;
59306;SDS011;47983;53.016;-2.260;2023-04-06T12:12:12;8.32;;;1.30;;
59306;SDS011;47983;53.016;-2.260;2023-04-06T12:14:39;9.65;;;1.20;;
59306;SDS011;47983;53.016;-2.260;2023-04-06T12:17:10;9.77;;;1.83;;
59306;SDS011;47983;53.016;-2.260;2023-04-06T12:19:38;8.13;;;2.03;;
59306;SDS011;47983;53.016;-2.260;2023-04-06T12:22:06;7.13;;;1.67;;
59306;SDS011;47983;53.016;-2.260;2023-04-06T12:24:34;7.32;;;0.73;;
59306;SDS011;47983;53.016;-2.260;2023-04-06T12:27:02;10.98;;;1.10;;
59306;SDS011;47983;53.016;-2.260;2023-04-06T12:29:40;12.32;;;1.20;;
59306;SDS011;47983;53.016;-2.260;2023-04-06T12:32:07;7.85;;;1.60;;
59306;SDS011;47983;53.016;-2.260;2023-04-06T12:34:38;12.23;;;2.17;;
59306;SDS011;47983;53.016;-2.260;2023-04-06T12:37:06;13.18;;;1.83;;
59306;SDS011;47983;53.016;-2.260;2023-04-06T12:39:36;10.25;;;1.70;;
59306;SDS011;47983;53.016;-2.260;2023-04-06T12:42:07;5.88;;;1.02;;
59306;SDS011;47983;53.016;-2.260;2023-04-06T12:44:36;5.75;;;0.80;;
59306;SDS011;47983;53.016;-2.260;2023-04-06T12:47:03;8.13;;;0.70;;
59306;SDS011;47983;53.016;-2.260;2023-04-06T12:49:31;5.95;;;0.77;;
59306;SDS011;47983;53.016;-2.260;2023-04-06T12:52:05;4.10;;;0.70;;
59306;SDS011;47983;53.016;-2.260;2023-04-06T12:54:33;9.85;;;1.23;;
59306;SDS011;47983;53.016;-2.260;2023-04-06T12:57:04;6.15;;;1.40;;
59306;SDS011;47983;53.016;-2.260;2023-04-06T12:59:32;8.20;;;1.70;;
59306;SDS011;47983;53.016;-2.260;2023-04-06T13:02:03;7.75;;;0.82;;
59306;SDS011;47983;53.016;-2.260;2023-04-06T13:04:32;6.22;;;1.00;;
59306;SDS011;47983;53.016;-2.260;2023-04-06T13:07:00;8.60;;;1.52;;
59306;SDS011;47983;53.016;-2.260;2023-04-06T13:09:27;8.52;;;1.02;;
59306;SDS011;47983;53.016;-2.260;2023-04-06T13:11:55;6.38;;;1.10;;
59306;SDS011;47983;53.016;-2.260;2023-04-06T13:14:23;5.13;;;0.90;;
59306;SDS011;47983;53.016;-2.260;2023-04-06T13:16:51;9.13;;;0.93;;
59306;SDS011;47983;53.016;-2.260;2023-04-06T13:19:18;2.85;;;0.90;;
59306;SDS011;47983;53.016;-2.260;2023-04-06T13:21:46;12.52;;;1.42;;
59306;SDS011;47983;53.016;-2.260;2023-04-06T13:24:14;3.05;;;0.85;;
59306;SDS011;47983;53.016;-2.260;2023-04-06T13:26:43;4.85;;;0.90;;
59306;SDS011;47983;53.016;-2.260;2023-04-06T13:29:11;7.20;;;0.82;;
59306;SDS011;47983;53.016;-2.260;2023-04-06T13:31:41;5.40;;;0.70;;
59306;SDS011;47983;53.016;-2.260;2023-04-06T13:34:09;5.28;;;0.63;;
59306;SDS011;47983;53.016;-2.260;2023-04-06T13:36:37;2.25;;;0.40;;
59306;SDS011;47983;53.016;-2.260;2023-04-06T13:39:08;4.80;;;0.60;;
59306;SDS011;47983;53.016;-2.260;2023-04-06T13:41:35;5.10;;;0.77;;
59306;SDS011;47983;53.016;-2.260;2023-04-06T13:44:03;6.90;;;0.80;;
59306;SDS011;47983;53.016;-2.260;2023-04-06T13:46:33;5.18;;;0.88;;
59306;SDS011;47983;53.016;-2.260;2023-04-06T13:49:01;3.97;;;0.63;;
59306;SDS011;47983;53.016;-2.260;2023-04-06T13:51:29;7.65;;;1.30;;
59306;SDS011;47983;53.016;-2.260;2023-04-06T13:53:57;14.07;;;1.80;;
59306;SDS011;47983;53.016;-2.260;2023-04-06T13:56:25;5.97;;;1.00;;
59306;SDS011;47983;53.016;-2.260;2023-04-06T13:58:53;7.93;;;0.85;;
59306;SDS011;47983;53.016;-2.260;2023-04-06T14:01:24;5.00;;;0.60;;
59306;SDS011;47983;53.016;-2.260;2023-04-06T14:03:53;4.20;;;0.90;;
59306;SDS011;47983;53.016;-2.260;2023-04-06T14:06:21;6.22;;;0.65;;
59306;SDS011;47983;53.016;-2.260;2023-04-06T14:08:58;4.15;;;0.75;;
59306;SDS011;47983;53.016;-2.260;2023-04-06T14:11:26;8.02;;;1.10;;
59306;SDS011;47983;53.016;-2.260;2023-04-06T14:13:54;3.90;;;0.65;;
59306;SDS011;47983;53.016;-2.260;2023-04-06T14:16:24;5.10;;;1.02;;
59306;SDS011;47983;53.016;-2.260;2023-04-06T14:18:52;3.35;;;0.98;;
59306;SDS011;47983;53.016;-2.260;2023-04-06T14:21:20;2.63;;;0.70;;
59306;SDS011;47983;53.016;-2.260;2023-04-06T14:23:47;3.70;;;0.60;;
59306;SDS011;47983;53.016;-2.260;2023-04-06T14:26:15;5.70;;;0.70;;
59306;SDS011;47983;53.016;-2.260;2023-04-06T14:28:44;8.85;;;1.15;;
59306;SDS011;47983;53.016;-2.260;2023-04-06T14:31:13;6.10;;;0.70;;
59306;SDS011;47983;53.016;-2.260;2023-04-06T14:36:11;4.78;;;0.80;;
59306;SDS011;47983;53.016;-2.260;2023-04-06T14:38:39;6.18;;;1.15;;
59306;SDS011;47983;53.016;-2.260;2023-04-06T14:41:08;8.57;;;0.95;;
59306;SDS011;47983;53.016;-2.260;2023-04-06T14:43:36;3.30;;;0.80;;
59306;SDS011;47983;53.016;-2.260;2023-04-06T14:46:06;4.82;;;0.70;;
59306;SDS011;47983;53.016;-2.260;2023-04-06T14:48:35;4.28;;;0.52;;
59306;SDS011;47983;53.016;-2.260;2023-04-06T14:51:03;2.72;;;0.82;;
59306;SDS011;47983;53.016;-2.260;2023-04-06T14:56:03;17.25;;;1.08;;
59306;SDS011;47983;53.016;-2.260;2023-04-06T14:58:34;4.68;;;1.08;;
59306;SDS011;47983;53.016;-2.260;2023-04-06T15:01:02;6.03;;;0.63;;
59306;SDS011;47983;53.016;-2.260;2023-04-06T15:03:30;3.17;;;0.80;;
59306;SDS011;47983;53.016;-2.260;2023-04-06T15:05:58;8.52;;;0.95;;
59306;SDS011;47983;53.016;-2.260;2023-04-06T15:08:25;7.68;;;0.52;;